createdAt,value
2018-12-27T00:00:53.369Z,314.74
2018-12-27T00:01:53.501Z,315.41
2018-12-27T00:02:54.943Z,311.55
2018-12-27T00:03:53.665Z,311.68
2018-12-27T00:04:53.778Z,313.02
2018-12-27T00:05:53.860Z,311.27
2018-12-27T00:06:53.998Z,311.20
2018-12-27T00:07:54.184Z,312.04
2018-12-27T00:08:54.158Z,310.65
2018-12-27T00:09:54.277Z,311.13
2018-12-27T00:10:54.359Z,310.96
2018-12-27T00:11:54.487Z,311.21
2018-12-27T00:12:54.622Z,311.54
2018-12-27T00:13:54.659Z,311.17
2018-12-27T00:14:54.758Z,312.75
2018-12-27T00:15:54.893Z,314.41
2018-12-27T00:16:54.975Z,313.76
2018-12-27T00:17:55.039Z,313.62
2018-12-27T00:18:55.144Z,314.02
2018-12-27T00:19:55.266Z,312.34
2018-12-27T00:20:55.328Z,312.00
2018-12-27T00:21:55.470Z,310.73
2018-12-27T00:22:55.546Z,312.46
2018-12-27T00:23:55.688Z,312.40
2018-12-27T00:24:55.768Z,310.68
2018-12-27T00:25:55.811Z,313.54
2018-12-27T00:26:55.933Z,310.85
2018-12-27T00:27:56.030Z,314.04
2018-12-27T00:28:56.135Z,312.36
2018-12-27T00:29:56.262Z,313.65
2018-12-27T00:30:56.346Z,313.67
2018-12-27T00:31:56.466Z,314.26
2018-12-27T00:33:02.913Z,314.48
2018-12-27T00:33:57.655Z,310.17
2018-12-27T00:34:56.770Z,314.26
2018-12-27T00:35:56.861Z,312.57
2018-12-27T00:36:56.966Z,311.47
2018-12-27T00:37:57.052Z,312.02
2018-12-27T00:38:57.133Z,310.90
2018-12-27T00:39:57.276Z,313.67
2018-12-27T00:40:57.495Z,312.94
2018-12-27T00:41:57.465Z,312.67
2018-12-27T00:42:57.529Z,312.15
2018-12-27T00:43:57.629Z,312.40
2018-12-27T00:44:57.758Z,314.25
2018-12-27T00:45:57.849Z,313.73
2018-12-27T00:46:57.958Z,310.94
2018-12-27T00:47:58.046Z,313.40
2018-12-27T00:48:58.206Z,312.40
2018-12-27T00:49:58.256Z,311.86
2018-12-27T00:50:58.348Z,313.11
2018-12-27T00:51:58.456Z,312.31
2018-12-27T00:52:58.539Z,310.88
2018-12-27T00:53:58.638Z,314.03
2018-12-27T00:54:58.739Z,312.07
2018-12-27T00:55:58.855Z,312.06
2018-12-27T00:56:58.988Z,313.71
2018-12-27T00:57:59.054Z,313.38
2018-12-27T00:58:59.143Z,314.16
2018-12-27T00:59:59.261Z,312.91
2018-12-27T01:00:59.325Z,314.43
2018-12-27T01:01:59.428Z,313.71
2018-12-27T01:02:59.575Z,313.02
2018-12-27T01:03:59.661Z,313.83
2018-12-27T01:04:59.833Z,313.61
2018-12-27T01:05:59.837Z,310.68
2018-12-27T01:06:59.927Z,312.69
2018-12-27T01:08:00.063Z,310.47
2018-12-27T01:09:00.166Z,312.52
2018-12-27T01:10:00.292Z,314.51
2018-12-27T01:11:00.366Z,311.86
2018-12-27T01:12:00.467Z,311.14
2018-12-27T01:13:00.614Z,313.86
2018-12-27T01:14:00.715Z,311.18
2018-12-27T01:15:00.767Z,311.81
2018-12-27T01:16:02.308Z,311.66
2018-12-27T01:17:01.183Z,313.49
2018-12-27T01:18:01.084Z,312.33
2018-12-27T01:19:01.142Z,314.27
2018-12-27T01:20:01.283Z,310.62
2018-12-27T01:21:01.395Z,311.43
2018-12-27T01:22:01.615Z,312.92
2018-12-27T01:23:01.594Z,312.55
2018-12-27T01:24:01.662Z,313.35
2018-12-27T01:25:01.791Z,314.35
2018-12-27T01:26:01.871Z,313.93
2018-12-27T01:27:01.979Z,312.43
2018-12-27T01:28:02.096Z,313.36
2018-12-27T01:29:02.184Z,313.53
2018-12-27T01:30:02.356Z,313.25
2018-12-27T01:31:02.380Z,311.13
2018-12-27T01:32:02.485Z,313.32
2018-12-27T01:33:02.597Z,310.95
2018-12-27T01:34:02.676Z,311.65
2018-12-27T01:35:02.798Z,313.95
2018-12-27T01:36:02.860Z,310.60
2018-12-27T01:37:02.994Z,311.18
2018-12-27T01:38:03.166Z,313.40
2018-12-27T01:39:03.176Z,310.06
2018-12-27T01:40:03.286Z,313.61
2018-12-27T01:41:03.368Z,313.38
2018-12-27T01:42:03.455Z,314.23
2018-12-27T01:43:03.570Z,312.07
2018-12-27T01:44:03.686Z,313.71
2018-12-27T01:45:03.784Z,313.66
2018-12-27T01:46:03.921Z,313.44
2018-12-27T01:47:03.946Z,311.41
2018-12-27T01:48:04.060Z,310.93
2018-12-27T01:49:04.180Z,311.00
2018-12-27T01:50:04.301Z,311.13
2018-12-27T01:51:04.382Z,314.30
2018-12-27T01:52:04.482Z,314.04
2018-12-27T01:53:04.605Z,311.43
2018-12-27T01:54:04.704Z,313.89
2018-12-27T01:55:04.866Z,313.44
2018-12-27T01:56:04.890Z,310.64
2018-12-27T01:57:04.983Z,310.92
2018-12-27T01:58:05.103Z,310.22
2018-12-27T01:59:05.193Z,312.77
2018-12-27T02:00:05.279Z,314.51
2018-12-27T02:01:05.386Z,313.26
2018-12-27T02:02:05.515Z,310.88
2018-12-27T02:03:05.733Z,313.81
2018-12-27T02:04:05.702Z,311.87
2018-12-27T02:05:05.782Z,311.59
2018-12-27T02:06:05.900Z,310.67
2018-12-27T02:07:05.989Z,313.75
2018-12-27T02:08:06.141Z,313.68
2018-12-27T02:09:06.227Z,312.26
2018-12-27T02:10:06.309Z,313.51
2018-12-27T02:11:06.522Z,312.12
2018-12-27T02:12:06.511Z,310.71
2018-12-27T02:13:06.628Z,310.54
2018-12-27T02:14:06.725Z,311.65
2018-12-27T02:15:06.810Z,310.77
2018-12-27T02:16:06.926Z,311.46
2018-12-27T02:17:07.009Z,311.11
2018-12-27T02:18:07.143Z,310.67
2018-12-27T02:19:07.316Z,313.91
2018-12-27T02:20:07.324Z,310.68
2018-12-27T02:21:07.448Z,310.77
2018-12-27T02:22:07.528Z,310.77
2018-12-27T02:23:07.631Z,310.40
2018-12-27T02:24:07.729Z,313.68
2018-12-27T02:25:07.827Z,313.10
2018-12-27T02:26:07.942Z,313.03
2018-12-27T02:27:08.055Z,311.25
2018-12-27T02:28:08.139Z,313.75
2018-12-27T02:29:08.227Z,312.22
2018-12-27T02:30:08.320Z,313.08
2018-12-27T02:31:08.460Z,313.57
2018-12-27T02:32:08.546Z,314.28
2018-12-27T02:33:08.658Z,310.65
2018-12-27T02:34:08.758Z,311.74
2018-12-27T02:35:08.883Z,314.21
2018-12-27T02:36:09.032Z,311.32
2018-12-27T02:37:09.035Z,311.92
2018-12-27T02:38:09.159Z,311.84
2018-12-27T02:39:09.261Z,311.82
2018-12-27T02:40:09.321Z,311.64
2018-12-27T02:41:09.442Z,311.33
2018-12-27T02:42:09.541Z,313.73
2018-12-27T02:43:09.669Z,314.06
2018-12-27T02:44:09.887Z,312.50
2018-12-27T02:45:09.817Z,312.77
2018-12-27T02:46:09.934Z,310.90
2018-12-27T02:47:10.033Z,313.92
2018-12-27T02:48:10.144Z,310.81
2018-12-27T02:49:10.244Z,311.23
2018-12-27T02:50:10.335Z,313.18
2018-12-27T02:51:10.455Z,312.12
2018-12-27T02:52:10.599Z,314.20
2018-12-27T02:53:10.639Z,307.02
2018-12-27T02:54:10.744Z,307.60
2018-12-27T02:55:11.045Z,306.80
2018-12-27T02:56:10.940Z,306.56
2018-12-27T02:57:11.026Z,307.34
2018-12-27T02:58:11.128Z,307.09
2018-12-27T02:59:11.233Z,307.22
2018-12-27T03:00:11.394Z,307.25
2018-12-27T03:01:11.439Z,306.94
2018-12-27T03:02:11.530Z,307.01
2018-12-27T03:03:11.655Z,306.62
2018-12-27T03:04:11.727Z,307.15
2018-12-27T03:05:11.824Z,306.97
2018-12-27T03:06:11.938Z,307.12
2018-12-27T03:07:12.023Z,307.03
2018-12-27T03:08:12.182Z,307.14
2018-12-27T03:09:12.251Z,307.19
2018-12-27T03:10:12.343Z,307.02
2018-12-27T03:11:12.448Z,307.21
2018-12-27T03:12:12.542Z,307.22
2018-12-27T03:13:12.638Z,307.33
2018-12-27T03:14:12.741Z,306.67
2018-12-27T03:15:12.858Z,306.95
2018-12-27T03:16:12.955Z,306.77
2018-12-27T03:17:13.151Z,306.94
2018-12-27T03:18:13.151Z,306.93
2018-12-27T03:19:13.263Z,306.37
2018-12-27T03:20:13.384Z,307.43
2018-12-27T03:21:13.582Z,307.17
2018-12-27T03:22:13.552Z,306.91
2018-12-27T03:23:13.669Z,307.02
2018-12-27T03:24:13.783Z,306.60
2018-12-27T03:25:14.011Z,307.03
2018-12-27T03:26:13.979Z,306.76
2018-12-27T03:27:14.086Z,307.35
2018-12-27T03:28:14.195Z,307.41
2018-12-27T03:29:14.312Z,306.35
2018-12-27T03:30:14.413Z,307.10
2018-12-27T03:31:14.518Z,307.76
2018-12-27T03:32:14.601Z,307.06
2018-12-27T03:33:14.736Z,307.28
2018-12-27T03:34:14.801Z,306.98
2018-12-27T03:35:14.899Z,307.15
2018-12-27T03:36:15.002Z,306.95
2018-12-27T03:37:15.088Z,307.56
2018-12-27T03:38:15.185Z,307.21
2018-12-27T03:39:15.286Z,306.77
2018-12-27T03:40:15.404Z,307.10
2018-12-27T03:41:15.580Z,306.79
2018-12-27T03:42:15.570Z,306.74
2018-12-27T03:43:15.675Z,306.81
2018-12-27T03:44:15.789Z,306.76
2018-12-27T03:45:15.871Z,307.01
2018-12-27T03:46:15.984Z,306.83
2018-12-27T03:47:16.074Z,307.14
2018-12-27T03:48:16.179Z,306.64
2018-12-27T03:49:16.327Z,306.87
2018-12-27T03:50:16.410Z,306.71
2018-12-27T03:51:16.491Z,307.08
2018-12-27T03:52:16.600Z,306.87
2018-12-27T03:53:16.698Z,306.46
2018-12-27T03:54:16.817Z,307.25
2018-12-27T03:55:16.916Z,307.13
2018-12-27T03:56:17.018Z,307.69
2018-12-27T03:57:17.105Z,306.98
2018-12-27T03:58:17.304Z,306.97
2018-12-27T03:59:17.320Z,307.11
2018-12-27T04:00:17.507Z,306.99
2018-12-27T04:01:17.517Z,307.36
2018-12-27T04:02:17.583Z,306.68
2018-12-27T04:03:17.699Z,307.10
2018-12-27T04:04:17.814Z,307.30
2018-12-27T04:05:17.907Z,307.37
2018-12-27T04:06:18.165Z,307.02
2018-12-27T04:07:18.087Z,307.03
2018-12-27T04:08:18.205Z,306.69
2018-12-27T04:09:18.321Z,306.89
2018-12-27T04:10:18.408Z,306.36
2018-12-27T04:11:18.621Z,307.26
2018-12-27T04:12:18.601Z,307.53
2018-12-27T04:13:18.797Z,307.10
2018-12-27T04:14:18.869Z,306.87
2018-12-27T04:15:18.930Z,306.91
2018-12-27T04:16:19.012Z,307.51
2018-12-27T04:17:19.116Z,306.98
2018-12-27T04:18:19.215Z,306.82
2018-12-27T04:19:19.312Z,306.89
2018-12-27T04:20:19.430Z,306.80
2018-12-27T04:21:19.532Z,306.64
2018-12-27T04:22:19.750Z,307.06
2018-12-27T04:23:19.731Z,307.20
2018-12-27T04:24:19.855Z,307.26
2018-12-27T04:25:19.936Z,307.02
2018-12-27T04:26:20.022Z,306.89
2018-12-27T04:27:20.164Z,307.14
2018-12-27T04:28:20.264Z,307.12
2018-12-27T04:29:20.379Z,306.77
2018-12-27T04:30:20.518Z,307.00
2018-12-27T04:31:20.597Z,307.31
2018-12-27T04:32:20.918Z,306.86
2018-12-27T04:33:20.761Z,307.42
2018-12-27T04:34:20.874Z,306.88
2018-12-27T04:35:20.987Z,307.24
2018-12-27T04:36:21.062Z,306.88
2018-12-27T04:37:21.180Z,306.58
2018-12-27T04:38:21.252Z,307.00
2018-12-27T04:39:21.473Z,307.50
2018-12-27T04:40:21.475Z,307.81
2018-12-27T04:41:21.575Z,306.76
2018-12-27T04:42:21.662Z,306.97
2018-12-27T04:43:21.739Z,307.23
2018-12-27T04:44:21.870Z,306.81
2018-12-27T04:45:21.954Z,307.37
2018-12-27T04:46:22.076Z,307.20
2018-12-27T04:47:22.296Z,306.90
2018-12-27T04:48:22.232Z,306.98
2018-12-27T04:49:22.364Z,306.64
2018-12-27T04:50:22.449Z,306.91
2018-12-27T04:51:22.569Z,306.17
2018-12-27T04:52:22.669Z,307.56
2018-12-27T04:53:22.751Z,307.26
2018-12-27T04:54:22.845Z,306.68
2018-12-27T04:55:23.004Z,307.04
2018-12-27T04:56:23.061Z,307.18
2018-12-27T04:57:23.184Z,307.20
2018-12-27T04:58:23.257Z,306.74
2018-12-27T04:59:23.375Z,307.19
2018-12-27T05:00:23.443Z,306.27
2018-12-27T05:01:23.544Z,306.56
2018-12-27T05:02:23.691Z,306.88
2018-12-27T05:03:23.848Z,306.64
2018-12-27T05:04:23.856Z,307.13
2018-12-27T05:05:23.945Z,306.36
2018-12-27T05:06:24.047Z,307.35
2018-12-27T05:07:24.156Z,307.04
2018-12-27T05:08:24.258Z,306.76
2018-12-27T05:09:24.365Z,307.10
2018-12-27T05:10:24.457Z,306.90
2018-12-27T05:11:24.585Z,307.74
2018-12-27T05:12:24.743Z,307.27
2018-12-27T05:13:24.756Z,307.02
2018-12-27T05:14:24.871Z,306.68
2018-12-27T05:15:24.946Z,306.92
2018-12-27T05:16:25.060Z,306.78
2018-12-27T05:17:25.189Z,306.76
2018-12-27T05:18:25.251Z,306.79
2018-12-27T05:19:25.389Z,306.30
2018-12-27T05:20:25.610Z,307.07
2018-12-27T05:21:25.590Z,306.99
2018-12-27T05:22:25.733Z,307.18
2018-12-27T05:23:25.761Z,307.23
2018-12-27T05:24:25.877Z,307.38
2018-12-27T05:25:25.983Z,306.75
2018-12-27T05:26:26.079Z,306.84
2018-12-27T05:27:26.216Z,307.36
2018-12-27T05:28:26.348Z,307.02
2018-12-27T05:29:26.383Z,306.90
2018-12-27T05:30:26.510Z,306.97
2018-12-27T05:31:26.609Z,306.92
2018-12-27T05:32:26.729Z,307.18
2018-12-27T05:33:26.810Z,306.89
2018-12-27T05:34:26.911Z,306.33
2018-12-27T05:35:27.012Z,306.96
2018-12-27T05:36:27.229Z,306.90
2018-12-27T05:37:27.220Z,306.39
2018-12-27T05:38:27.320Z,306.62
2018-12-27T05:39:27.490Z,307.02
2018-12-27T05:40:27.538Z,306.84
2018-12-27T05:41:27.616Z,306.37
2018-12-27T05:42:27.737Z,306.40
2018-12-27T05:43:27.827Z,306.44
2018-12-27T05:44:27.944Z,307.49
2018-12-27T05:45:28.027Z,306.78
2018-12-27T05:46:28.123Z,307.04
2018-12-27T05:47:28.224Z,306.64
2018-12-27T05:48:28.342Z,307.23
2018-12-27T05:49:28.423Z,313.07
2018-12-27T05:50:28.543Z,313.94
2018-12-27T05:51:28.628Z,310.52
2018-12-27T05:52:28.774Z,312.72
2018-12-27T05:53:28.935Z,313.82
2018-12-27T05:54:28.952Z,313.66
2018-12-27T05:55:34.189Z,311.18
2018-12-27T05:56:30.174Z,310.57
2018-12-27T05:57:29.283Z,314.03
2018-12-27T05:58:29.344Z,311.93
2018-12-27T05:59:29.472Z,307.05
2018-12-27T06:00:29.599Z,307.67
2018-12-27T06:01:29.836Z,306.96
2018-12-27T06:02:29.790Z,306.89
2018-12-27T06:03:29.857Z,306.57
2018-12-27T06:04:33.642Z,306.69
2018-12-27T06:05:30.107Z,306.71
2018-12-27T06:06:30.199Z,307.07
2018-12-27T06:07:30.293Z,306.61
2018-12-27T06:08:30.627Z,306.83
2018-12-27T06:09:30.568Z,306.83
2018-12-27T06:10:30.587Z,306.94
2018-12-27T06:11:30.700Z,306.65
2018-12-27T06:12:30.807Z,306.60
2018-12-27T06:13:30.884Z,305.84
2018-12-27T06:14:31.007Z,306.48
2018-12-27T06:15:31.113Z,306.82
2018-12-27T06:16:31.194Z,306.96
2018-12-27T06:17:31.422Z,306.87
2018-12-27T06:18:31.374Z,306.65
2018-12-27T06:19:31.483Z,307.14
2018-12-27T06:20:31.602Z,306.49
2018-12-27T06:21:31.691Z,306.86
2018-12-27T06:22:31.780Z,306.27
2018-12-27T06:23:31.879Z,307.45
2018-12-27T06:24:32.013Z,306.20
2018-12-27T06:25:32.386Z,306.69
2018-12-27T06:26:32.216Z,307.35
2018-12-27T06:27:32.299Z,307.46
2018-12-27T06:28:32.398Z,307.37
2018-12-27T06:29:32.527Z,306.57
2018-12-27T06:30:32.615Z,306.55
2018-12-27T06:31:32.714Z,306.53
2018-12-27T06:32:32.832Z,310.54
2018-12-27T06:33:32.922Z,309.49
2018-12-27T06:34:33.125Z,309.87
2018-12-27T06:35:33.126Z,307.45
2018-12-27T06:36:33.205Z,306.62
2018-12-27T06:37:33.342Z,306.95
2018-12-27T06:38:33.409Z,309.71
2018-12-27T06:39:33.492Z,307.07
2018-12-27T06:40:33.625Z,307.09
2018-12-27T06:41:33.704Z,307.56
2018-12-27T06:42:33.944Z,306.75
2018-12-27T06:43:33.893Z,306.47
2018-12-27T06:44:33.996Z,307.12
2018-12-27T06:45:34.135Z,306.88
2018-12-27T06:46:34.215Z,306.92
2018-12-27T06:47:34.331Z,306.11
2018-12-27T06:48:34.427Z,306.81
2018-12-27T06:49:34.537Z,305.82
2018-12-27T06:50:34.701Z,306.37
2018-12-27T06:51:34.717Z,306.90
2018-12-27T06:52:34.837Z,305.88
2018-12-27T06:53:34.940Z,305.70
2018-12-27T06:54:35.020Z,306.88
2018-12-27T06:55:35.137Z,306.75
2018-12-27T06:56:35.197Z,306.68
2018-12-27T06:57:35.337Z,306.13
2018-12-27T06:58:37.890Z,306.76
2018-12-27T06:59:35.499Z,306.65
2018-12-27T07:00:35.633Z,306.33
2018-12-27T07:01:35.701Z,306.02
2018-12-27T07:02:35.801Z,306.17
2018-12-27T07:03:35.922Z,306.67
2018-12-27T07:04:36.011Z,306.30
2018-12-27T07:05:36.130Z,307.05
2018-12-27T07:06:36.261Z,306.04
2018-12-27T07:07:36.381Z,306.70
2018-12-27T07:08:36.411Z,306.77
2018-12-27T07:09:36.515Z,306.39
2018-12-27T07:10:36.626Z,306.22
2018-12-27T07:11:36.711Z,307.14
2018-12-27T07:12:36.828Z,306.79
2018-12-27T07:13:36.929Z,306.76
2018-12-27T07:14:37.016Z,306.87
2018-12-27T07:15:37.203Z,306.30
2018-12-27T07:16:37.216Z,306.38
2018-12-27T07:17:37.330Z,306.42
2018-12-27T07:18:37.431Z,307.08
2018-12-27T07:19:37.574Z,307.42
2018-12-27T07:20:37.625Z,307.00
2018-12-27T07:21:37.718Z,306.04
2018-12-27T07:22:37.825Z,306.65
2018-12-27T07:23:38.051Z,306.77
2018-12-27T07:24:37.988Z,306.33
2018-12-27T07:25:38.124Z,306.71
2018-12-27T07:26:38.206Z,306.89
2018-12-27T07:27:38.313Z,307.36
2018-12-27T07:28:38.423Z,306.60
2018-12-27T07:29:38.497Z,306.30
2018-12-27T07:30:38.639Z,306.62
2018-12-27T07:31:38.746Z,307.01
2018-12-27T07:32:38.804Z,306.95
2018-12-27T07:33:38.914Z,306.21
2018-12-27T07:34:38.995Z,306.02
2018-12-27T07:35:39.111Z,307.46
2018-12-27T07:36:39.175Z,306.80
2018-12-27T07:37:39.284Z,306.10
2018-12-27T07:38:39.410Z,306.73
2018-12-27T07:39:39.530Z,306.53
2018-12-27T07:40:39.588Z,306.88
2018-12-27T07:41:39.685Z,307.30
2018-12-27T07:42:39.764Z,306.54
2018-12-27T07:43:39.888Z,306.50
2018-12-27T07:44:39.986Z,307.00
2018-12-27T07:45:40.087Z,306.66
2018-12-27T07:46:40.196Z,306.12
2018-12-27T07:47:40.339Z,306.78
2018-12-27T07:48:40.457Z,306.42
2018-12-27T07:49:40.498Z,307.10
2018-12-27T07:50:40.609Z,306.43
2018-12-27T07:51:40.733Z,307.57
2018-12-27T07:52:40.821Z,306.46
2018-12-27T07:53:40.997Z,305.94
2018-12-27T07:54:41.020Z,306.26
2018-12-27T07:55:41.108Z,306.17
2018-12-27T07:56:41.372Z,306.46
2018-12-27T07:57:41.360Z,306.63
2018-12-27T07:58:41.450Z,306.76
2018-12-27T07:59:41.516Z,306.52
2018-12-27T08:00:41.612Z,306.75
2018-12-27T08:01:41.744Z,306.60
2018-12-27T08:02:42.616Z,306.38
2018-12-27T08:03:41.939Z,306.84
2018-12-27T08:04:42.107Z,307.50
2018-12-27T08:05:42.098Z,306.66
2018-12-27T08:06:42.250Z,306.83
2018-12-27T08:07:42.308Z,306.74
2018-12-27T08:08:42.445Z,307.20
2018-12-27T08:09:42.516Z,307.01
2018-12-27T08:10:42.620Z,307.31
2018-12-27T08:11:42.727Z,305.92
2018-12-27T08:12:42.867Z,305.83
2018-12-27T08:13:42.932Z,306.67
2018-12-27T08:14:43.022Z,306.77
2018-12-27T08:15:43.120Z,306.46
2018-12-27T08:16:48.346Z,306.08
2018-12-27T08:17:43.318Z,306.85
2018-12-27T08:18:43.420Z,306.65
2018-12-27T08:19:43.522Z,306.63
2018-12-27T08:20:43.695Z,306.58
2018-12-27T08:21:43.737Z,306.63
2018-12-27T08:22:43.827Z,306.77
2018-12-27T08:23:43.941Z,306.25
2018-12-27T08:24:44.010Z,306.60
2018-12-27T08:25:44.119Z,306.08
2018-12-27T08:26:44.284Z,306.95
2018-12-27T08:27:44.339Z,306.89
2018-12-27T08:28:44.477Z,306.73
2018-12-27T08:29:44.567Z,306.30
2018-12-27T08:30:44.641Z,306.50
2018-12-27T08:31:44.807Z,306.39
2018-12-27T08:32:44.854Z,306.12
2018-12-27T08:33:44.972Z,306.05
2018-12-27T08:34:45.053Z,306.53
2018-12-27T08:35:45.154Z,305.95
2018-12-27T08:36:45.274Z,306.52
2018-12-27T08:37:45.472Z,306.50
2018-12-27T08:38:45.488Z,306.88
2018-12-27T08:39:45.551Z,306.22
2018-12-27T08:40:45.630Z,306.46
2018-12-27T08:41:45.746Z,305.85
2018-12-27T08:42:45.857Z,306.93
2018-12-27T08:43:45.975Z,306.44
2018-12-27T08:44:46.055Z,306.57
2018-12-27T08:45:46.241Z,305.92
2018-12-27T08:46:46.242Z,306.57
2018-12-27T08:47:46.358Z,305.74
2018-12-27T08:48:46.477Z,306.11
2018-12-27T08:49:46.559Z,306.60
2018-12-27T08:50:46.656Z,306.42
2018-12-27T08:51:46.780Z,307.05
2018-12-27T08:52:46.867Z,305.96
2018-12-27T08:53:46.991Z,307.37
2018-12-27T08:54:47.046Z,306.88
2018-12-27T08:55:47.149Z,307.02
2018-12-27T08:56:47.263Z,306.85
2018-12-27T08:57:47.610Z,306.47
2018-12-27T08:58:47.460Z,306.43
2018-12-27T08:59:47.528Z,306.63
2018-12-27T09:00:47.638Z,305.72
2018-12-27T09:01:47.807Z,306.52
2018-12-27T09:02:47.837Z,306.29
2018-12-27T09:03:47.939Z,307.04
2018-12-27T09:04:48.046Z,307.89
2018-12-27T09:05:48.124Z,306.41
2018-12-27T09:06:48.256Z,306.04
2018-12-27T09:07:48.598Z,308.51
2018-12-27T09:08:48.456Z,306.13
2018-12-27T09:09:48.592Z,306.21
2018-12-27T09:10:48.725Z,306.67
2018-12-27T09:11:48.765Z,306.80
2018-12-27T09:12:48.857Z,306.01
2018-12-27T09:13:48.965Z,305.75
2018-12-27T09:14:49.072Z,306.06
2018-12-27T09:15:49.170Z,306.34
2018-12-27T09:16:49.272Z,306.40
2018-12-27T09:17:49.375Z,306.12
2018-12-27T09:18:49.629Z,306.13
2018-12-27T09:19:49.605Z,306.20
2018-12-27T09:20:49.682Z,307.00
2018-12-27T09:21:49.789Z,306.39
2018-12-27T09:22:49.870Z,306.39
2018-12-27T09:23:50.012Z,306.33
2018-12-27T09:24:50.326Z,306.57
2018-12-27T09:25:50.191Z,306.34
2018-12-27T09:26:50.393Z,306.73
2018-12-27T09:27:50.360Z,306.17
2018-12-27T09:28:50.489Z,306.40
2018-12-27T09:29:50.614Z,306.90
2018-12-27T09:30:50.695Z,307.31
2018-12-27T09:31:50.840Z,306.90
2018-12-27T09:32:50.896Z,306.66
2018-12-27T09:33:51.004Z,306.56
2018-12-27T09:34:51.147Z,307.23
2018-12-27T09:35:51.177Z,306.79
2018-12-27T09:36:51.318Z,306.75
2018-12-27T09:37:51.383Z,307.40
2018-12-27T09:38:51.500Z,306.38
2018-12-27T09:39:51.595Z,306.38
2018-12-27T09:40:51.660Z,307.63
2018-12-27T09:41:51.793Z,306.99
2018-12-27T09:42:51.950Z,307.26
2018-12-27T09:43:52.001Z,306.30
2018-12-27T09:44:52.117Z,307.05
2018-12-27T09:45:52.198Z,306.64
2018-12-27T09:46:52.293Z,306.33
2018-12-27T09:47:52.399Z,307.13
2018-12-27T09:48:52.508Z,306.80
2018-12-27T09:49:52.618Z,306.90
2018-12-27T09:50:52.712Z,307.99
2018-12-27T09:51:52.919Z,307.13
2018-12-27T09:52:52.897Z,307.74
2018-12-27T09:53:53.033Z,306.35
2018-12-27T09:54:53.115Z,306.99
2018-12-27T09:55:53.199Z,306.23
2018-12-27T09:56:53.315Z,307.16
2018-12-27T09:57:53.381Z,306.31
2018-12-27T09:58:53.508Z,306.62
2018-12-27T09:59:53.728Z,307.21
2018-12-27T10:00:53.697Z,306.76
2018-12-27T10:01:53.815Z,306.88
2018-12-27T10:02:53.879Z,307.33
2018-12-27T10:03:54.025Z,307.06
2018-12-27T10:04:54.151Z,306.26
2018-12-27T10:05:54.228Z,306.72
2018-12-27T10:06:54.343Z,306.50
2018-12-27T10:07:57.417Z,306.76
2018-12-27T10:08:54.495Z,306.89
2018-12-27T10:09:54.650Z,306.63
2018-12-27T10:10:54.714Z,307.50
2018-12-27T10:11:54.814Z,306.81
2018-12-27T10:12:54.913Z,307.03
2018-12-27T10:13:55.017Z,306.73
2018-12-27T10:14:55.155Z,306.68
2018-12-27T10:15:55.276Z,307.45
2018-12-27T10:16:55.296Z,306.26
2018-12-27T10:17:55.420Z,306.86
2018-12-27T10:18:55.525Z,306.58
2018-12-27T10:19:55.648Z,306.83
2018-12-27T10:20:55.698Z,306.36
2018-12-27T10:21:55.809Z,306.72
2018-12-27T10:22:55.944Z,306.77
2018-12-27T10:23:56.047Z,306.86
2018-12-27T10:24:56.219Z,306.63
2018-12-27T10:25:56.222Z,307.42
2018-12-27T10:26:56.307Z,306.61
2018-12-27T10:27:56.446Z,307.39
2018-12-27T10:28:56.545Z,307.24
2018-12-27T10:29:56.682Z,306.24
2018-12-27T10:30:59.746Z,306.53
2018-12-27T10:31:56.859Z,307.17
2018-12-27T10:32:57.057Z,306.32
2018-12-27T10:33:57.063Z,306.59
2018-12-27T10:34:57.168Z,305.89
2018-12-27T10:35:57.284Z,306.79
2018-12-27T10:36:57.346Z,307.34
2018-12-27T10:37:57.464Z,306.91
2018-12-27T10:38:57.521Z,306.32
2018-12-27T10:39:57.670Z,306.83
2018-12-27T10:40:57.857Z,309.44
2018-12-27T10:41:57.831Z,306.17
2018-12-27T10:42:57.937Z,306.62
2018-12-27T10:43:58.021Z,307.49
2018-12-27T10:44:58.164Z,306.35
2018-12-27T10:45:58.238Z,306.75
2018-12-27T10:46:58.340Z,305.96
2018-12-27T10:47:58.447Z,306.82
2018-12-27T10:48:58.586Z,306.45
2018-12-27T10:49:58.671Z,307.01
2018-12-27T10:50:58.726Z,307.05
2018-12-27T10:51:58.827Z,306.86
2018-12-27T10:52:58.943Z,306.68
2018-12-27T10:53:59.028Z,306.75
2018-12-27T10:54:59.162Z,306.99
2018-12-27T10:55:59.212Z,306.42
2018-12-27T10:56:59.406Z,310.29
2018-12-27T10:57:59.426Z,313.42
2018-12-27T10:58:59.511Z,313.37
2018-12-27T10:59:59.648Z,311.26
2018-12-27T11:00:59.718Z,306.76
2018-12-27T11:01:59.806Z,306.47
2018-12-27T11:03:00.164Z,305.99
2018-12-27T11:04:00.023Z,307.74
2018-12-27T11:05:00.196Z,307.63
2018-12-27T11:06:00.302Z,307.50
2018-12-27T11:07:00.309Z,307.01
2018-12-27T11:08:00.428Z,307.37
2018-12-27T11:09:00.528Z,307.93
2018-12-27T11:10:00.669Z,307.48
2018-12-27T11:11:00.728Z,307.16
2018-12-27T11:12:00.828Z,306.49
2018-12-27T11:13:00.955Z,306.16
2018-12-27T11:14:01.144Z,307.59
2018-12-27T11:15:01.160Z,307.89
2018-12-27T11:16:01.226Z,306.28
2018-12-27T11:17:01.326Z,307.20
2018-12-27T11:18:01.437Z,307.57
2018-12-27T11:19:01.504Z,307.83
2018-12-27T11:20:01.871Z,306.43
2018-12-27T11:21:01.764Z,306.97
2018-12-27T11:22:01.986Z,307.09
2018-12-27T11:23:01.971Z,307.21
2018-12-27T11:24:02.038Z,306.53
2018-12-27T11:25:02.186Z,307.82
2018-12-27T11:26:02.322Z,307.80
2018-12-27T11:27:02.387Z,307.59
2018-12-27T11:28:02.505Z,306.99
2018-12-27T11:29:02.589Z,307.24
2018-12-27T11:30:02.724Z,307.86
2018-12-27T11:31:02.805Z,307.01
2018-12-27T11:32:02.897Z,307.97
2018-12-27T11:33:03.012Z,307.16
2018-12-27T11:34:03.106Z,307.08
2018-12-27T11:35:03.196Z,307.00
2018-12-27T11:36:03.328Z,307.75
2018-12-27T11:37:03.682Z,306.60
2018-12-27T11:38:03.552Z,307.35
2018-12-27T11:39:03.590Z,306.31
2018-12-27T11:40:03.699Z,306.72
2018-12-27T11:41:03.821Z,307.28
2018-12-27T11:42:03.916Z,307.23
2018-12-27T11:43:04.125Z,307.23
2018-12-27T11:44:04.112Z,306.57
2018-12-27T11:45:04.210Z,306.45
2018-12-27T11:46:04.382Z,307.41
2018-12-27T11:47:04.472Z,306.80
2018-12-27T11:48:04.639Z,307.47
2018-12-27T11:49:04.609Z,306.36
2018-12-27T11:50:04.716Z,307.09
2018-12-27T11:51:04.878Z,307.53
2018-12-27T11:52:04.925Z,306.44
2018-12-27T11:53:05.035Z,307.24
2018-12-27T11:54:05.111Z,307.03
2018-12-27T11:55:05.354Z,306.57
2018-12-27T11:56:05.354Z,306.48
2018-12-27T11:57:05.435Z,307.11
2018-12-27T11:58:05.564Z,308.09
2018-12-27T11:59:05.615Z,306.49
2018-12-27T12:00:05.737Z,306.80
2018-12-27T12:01:05.882Z,307.20
2018-12-27T12:02:05.963Z,306.80
2018-12-27T12:03:06.195Z,306.75
2018-12-27T12:04:06.146Z,307.66
2018-12-27T12:05:06.228Z,307.06
2018-12-27T12:06:06.365Z,307.09
2018-12-27T12:07:06.449Z,306.58
2018-12-27T12:08:06.594Z,306.94
2018-12-27T12:09:06.651Z,306.25
2018-12-27T12:10:06.750Z,306.72
2018-12-27T12:11:06.894Z,306.38
2018-12-27T12:12:06.933Z,306.52
2018-12-27T12:13:07.063Z,307.40
2018-12-27T12:14:07.141Z,306.64
2018-12-27T12:15:07.242Z,307.52
2018-12-27T12:16:07.368Z,306.44
2018-12-27T12:17:07.420Z,306.77
2018-12-27T12:18:07.605Z,306.80
2018-12-27T12:19:07.676Z,307.75
2018-12-27T12:20:07.723Z,307.15
2018-12-27T12:21:07.852Z,306.91
2018-12-27T12:22:07.936Z,306.84
2018-12-27T12:23:08.062Z,306.84
2018-12-27T12:24:08.180Z,306.86
2018-12-27T12:25:08.255Z,307.11
2018-12-27T12:26:08.375Z,306.88
2018-12-27T12:27:08.491Z,306.48
2018-12-27T12:28:08.646Z,307.11
2018-12-27T12:29:08.694Z,306.96
2018-12-27T12:30:08.804Z,307.26